createdAt,value
2023-10-06T00:00:51.919Z,366.93
2023-10-06T00:05:56.715Z,365.47
2023-10-06T00:11:11.760Z,362.80
2023-10-06T00:16:14.231Z,372.57
2023-10-06T00:21:16.716Z,362.47
2023-10-06T00:26:19.321Z,369.60
2023-10-06T00:31:26.310Z,350.93
2023-10-06T00:36:30.398Z,363.80
2023-10-06T00:41:34.322Z,363.03
2023-10-06T00:46:36.278Z,357.10
2023-10-06T00:51:42.536Z,351.90
2023-10-06T00:56:44.601Z,368.83
2023-10-06T01:01:46.933Z,348.33
2023-10-06T01:06:48.930Z,363.83
2023-10-06T01:11:52.765Z,347.50
2023-10-06T01:17:09.405Z,370.17
2023-10-06T01:22:29.079Z,350.38
2023-10-06T01:27:31.195Z,362.83
2023-10-06T01:32:33.348Z,355.27
2023-10-06T01:37:35.427Z,384.87
2023-10-06T01:42:37.376Z,360.27
2023-10-06T01:47:39.444Z,362.23
2023-10-06T01:52:41.438Z,352.90
2023-10-06T01:57:45.503Z,364.30
2023-10-06T02:02:51.923Z,357.17
2023-10-06T02:08:01.710Z,354.40
2023-10-06T02:13:07.950Z,365.23
2023-10-06T02:18:14.031Z,354.38
2023-10-06T02:23:17.068Z,363.67
2023-10-06T02:28:22.087Z,365.70
2023-10-06T02:33:25.797Z,362.43
2023-10-06T02:38:42.159Z,350.27
2023-10-06T02:43:44.209Z,358.88
2023-10-06T02:48:52.499Z,351.33
2023-10-06T02:54:00.402Z,374.07
2023-10-06T02:59:16.529Z,364.93
2023-10-06T03:04:18.819Z,353.35
2023-10-06T03:09:30.069Z,359.93
2023-10-06T03:14:41.011Z,347.83
2023-10-06T03:19:46.122Z,369.70
2023-10-06T03:25:01.566Z,357.53
2023-10-06T03:30:28.427Z,345.70
2023-10-06T03:35:37.880Z,354.70
2023-10-06T03:41:08.837Z,350.60
2023-10-06T03:46:16.723Z,356.53
2023-10-06T03:51:22.250Z,365.73
2023-10-06T03:56:24.200Z,366.70
2023-10-06T04:01:32.602Z,349.67
2023-10-06T04:06:36.395Z,358.47
2023-10-06T04:11:38.373Z,356.13
2023-10-06T04:16:46.913Z,359.53
2023-10-06T04:21:49.883Z,367.77
2023-10-06T04:26:51.849Z,363.83
2023-10-06T04:31:53.949Z,369.27
2023-10-06T04:36:58.118Z,359.03
2023-10-06T04:42:01.248Z,353.27
2023-10-06T04:47:03.206Z,360.83
2023-10-06T04:52:05.689Z,358.43
2023-10-06T04:57:09.675Z,362.63
2023-10-06T05:02:12.682Z,359.17
2023-10-06T05:07:15.164Z,360.33
2023-10-06T05:12:17.070Z,362.07
2023-10-06T05:17:19.320Z,357.80
2023-10-06T05:22:22.571Z,370.87
2023-10-06T05:27:24.900Z,361.20
2023-10-06T05:32:26.977Z,354.53
2023-10-06T05:37:28.994Z,362.57
2023-10-06T05:42:31.284Z,361.73
2023-10-06T05:47:33.183Z,368.77
2023-10-06T05:52:40.226Z,348.97
2023-10-06T05:57:49.835Z,349.70
2023-10-06T06:02:53.913Z,356.37
2023-10-06T06:07:56.204Z,348.33
2023-10-06T06:13:01.306Z,368.13
2023-10-06T06:18:03.481Z,370.40
2023-10-06T06:23:13.909Z,353.87
2023-10-06T06:28:17.848Z,361.87
2023-10-06T06:33:23.837Z,368.23
2023-10-06T06:38:26.589Z,368.77
2023-10-06T06:43:28.894Z,357.57
2023-10-06T06:48:30.852Z,363.23
2023-10-06T06:53:32.856Z,374.30
2023-10-06T06:58:34.882Z,370.77
2023-10-06T07:03:38.739Z,369.53
2023-10-06T07:08:41.189Z,355.57
2023-10-06T07:13:43.873Z,368.43
2023-10-06T07:18:46.982Z,362.87
2023-10-06T07:23:53.097Z,364.67
2023-10-06T07:28:56.754Z,349.87
2023-10-06T07:33:59.387Z,355.07
2023-10-06T07:39:02.369Z,363.43
2023-10-06T07:44:06.710Z,366.70
2023-10-06T07:49:08.933Z,364.83
2023-10-06T07:54:12.199Z,370.57
2023-10-06T07:59:14.278Z,353.83
2023-10-06T08:04:16.663Z,377.47
2023-10-06T08:09:18.604Z,351.67
2023-10-06T08:14:20.637Z,365.80
2023-10-06T08:19:23.885Z,361.13
2023-10-06T08:24:27.994Z,359.97
2023-10-06T08:29:31.100Z,388.73
2023-10-06T08:34:33.299Z,374.93
2023-10-06T08:39:40.035Z,358.87
2023-10-06T08:44:43.128Z,360.83
2023-10-06T08:49:47.703Z,366.07
2023-10-06T08:54:49.746Z,364.40
2023-10-06T08:59:51.727Z,355.43
2023-10-06T09:04:55.875Z,342.33
2023-10-06T09:09:57.928Z,362.03
2023-10-06T09:15:00.408Z,358.90
2023-10-06T09:20:03.507Z,358.17
2023-10-06T09:25:11.794Z,355.57
2023-10-06T09:30:13.852Z,355.73
2023-10-06T09:35:20.603Z,350.00
2023-10-06T09:40:23.233Z,355.88
2023-10-06T09:45:26.203Z,374.77
2023-10-06T09:50:29.729Z,347.73
2023-10-06T09:55:32.572Z,359.77
2023-10-06T10:00:40.088Z,361.53
2023-10-06T10:05:50.387Z,361.90
2023-10-06T10:10:57.173Z,349.20
2023-10-06T10:16:48.195Z,354.67
2023-10-06T10:22:07.571Z,338.97
2023-10-06T10:27:38.671Z,353.40
2023-10-06T10:32:57.373Z,341.47
2023-10-06T10:38:12.620Z,357.67
2023-10-06T10:43:37.414Z,349.17
2023-10-06T10:48:48.734Z,332.37
2023-10-06T10:53:53.683Z,353.20
2023-10-06T10:58:56.672Z,353.30
2023-10-06T11:04:10.987Z,339.73
2023-10-06T11:09:35.110Z,345.93
2023-10-06T11:14:43.744Z,347.67
2023-10-06T11:19:45.903Z,346.80
2023-10-06T11:24:51.532Z,353.33
2023-10-06T11:29:54.327Z,341.17
2023-10-06T11:34:56.769Z,343.30
2023-10-06T11:39:59.270Z,355.33
2023-10-06T11:45:02.450Z,353.43
2023-10-06T11:50:07.072Z,348.63
2023-10-06T11:55:12.781Z,350.93
2023-10-06T12:00:18.914Z,340.03
2023-10-06T12:05:23.589Z,337.88
2023-10-06T12:10:26.564Z,359.33
2023-10-06T12:15:31.032Z,345.43
2023-10-06T12:20:36.886Z,349.77
2023-10-06T12:25:39.030Z,346.10
2023-10-06T12:30:41.059Z,336.50
2023-10-06T12:35:43.200Z,357.03
2023-10-06T12:40:48.218Z,344.27
2023-10-06T12:45:51.271Z,354.47
2023-10-06T12:50:53.201Z,348.63
2023-10-06T12:55:58.289Z,351.90
2023-10-06T13:01:00.381Z,346.07
2023-10-06T13:06:04.756Z,338.37
2023-10-06T13:11:11.455Z,356.37
2023-10-06T13:16:13.624Z,358.10
2023-10-06T13:21:15.628Z,347.33
2023-10-06T13:26:31.488Z,347.60
2023-10-06T13:31:42.426Z,332.10
2023-10-06T13:36:44.807Z,349.13
2023-10-06T13:41:48.093Z,361.57
2023-10-06T13:46:50.376Z,350.53
2023-10-06T13:51:54.402Z,349.93
2023-10-06T13:56:58.604Z,351.77
2023-10-06T14:02:01.316Z,346.97
2023-10-06T14:07:06.727Z,349.37
2023-10-06T14:12:14.270Z,356.57
2023-10-06T14:17:22.765Z,345.93
2023-10-06T14:22:31.333Z,346.23
2023-10-06T14:27:33.259Z,347.07
2023-10-06T14:32:43.998Z,343.93
2023-10-06T14:38:05.558Z,345.30
2023-10-06T14:43:36.318Z,340.87
2023-10-06T14:48:40.205Z,345.83
2023-10-06T14:53:42.268Z,345.63
2023-10-06T14:58:48.100Z,354.70
2023-10-06T15:03:50.422Z,345.10
2023-10-06T15:08:54.526Z,345.33
2023-10-06T15:13:56.462Z,343.03
2023-10-06T15:18:58.363Z,343.23
2023-10-06T15:24:00.294Z,358.37
2023-10-06T15:29:02.296Z,336.77
2023-10-06T15:34:05.447Z,347.40
2023-10-06T15:39:20.041Z,348.80
2023-10-06T15:44:22.731Z,340.47
2023-10-06T15:49:24.796Z,339.07
2023-10-06T15:54:26.932Z,331.47
2023-10-06T15:59:31.156Z,336.50
2023-10-06T16:04:35.983Z,347.13
2023-10-06T16:09:38.004Z,343.97
2023-10-06T16:14:40.031Z,337.83
2023-10-06T16:19:42.094Z,343.23
2023-10-06T16:24:44.091Z,342.70
2023-10-06T16:29:47.990Z,333.03
2023-10-06T16:34:50.095Z,354.33
2023-10-06T16:39:52.805Z,344.47
2023-10-06T16:44:54.783Z,337.80
2023-10-06T16:49:56.939Z,340.57
2023-10-06T16:54:58.873Z,340.20
2023-10-06T17:00:05.825Z,330.23
2023-10-06T17:10:11.073Z,350.93
2023-10-06T17:15:13.175Z,336.17
2023-10-06T17:20:22.483Z,336.07
2023-10-06T17:25:24.651Z,344.93
2023-10-06T17:30:26.733Z,337.73
2023-10-06T17:35:29.693Z,332.27
2023-10-06T17:40:31.790Z,337.13
2023-10-06T17:45:40.096Z,344.93
2023-10-06T17:50:51.237Z,347.83
2023-10-06T17:55:54.175Z,333.13
2023-10-06T18:00:56.836Z,333.77
2023-10-06T18:05:58.828Z,338.27
2023-10-06T18:11:00.857Z,338.27
2023-10-06T18:16:05.907Z,336.77
2023-10-06T18:21:08.787Z,336.97
2023-10-06T18:26:14.914Z,349.30
2023-10-06T18:31:17.037Z,340.20
2023-10-06T18:36:19.145Z,349.97
2023-10-06T18:41:21.164Z,349.63
2023-10-06T18:46:23.180Z,347.50
2023-10-06T18:51:26.080Z,342.90
2023-10-06T18:56:28.100Z,327.93
2023-10-06T19:01:30.724Z,329.53
2023-10-06T19:06:33.796Z,327.30
2023-10-06T19:11:36.526Z,340.00
2023-10-06T19:16:38.797Z,341.73
2023-10-06T19:21:40.800Z,334.43
2023-10-06T19:26:42.673Z,327.60
2023-10-06T19:31:46.862Z,336.07
2023-10-06T19:36:49.932Z,325.57
2023-10-06T19:41:52.013Z,346.30
2023-10-06T19:46:53.946Z,334.77
2023-10-06T19:51:58.572Z,333.30
2023-10-06T19:57:00.631Z,336.70
2023-10-06T20:02:06.658Z,342.33
2023-10-06T20:07:10.193Z,338.77
2023-10-06T20:12:12.217Z,342.17
2023-10-06T20:17:16.186Z,347.47
2023-10-06T20:22:18.298Z,339.10
2023-10-06T20:27:20.455Z,338.00
2023-10-06T20:32:22.528Z,335.00
2023-10-06T20:37:24.492Z,334.27
2023-10-06T20:42:26.341Z,349.87
2023-10-06T20:47:28.571Z,345.07
2023-10-06T20:52:32.391Z,347.40
2023-10-06T20:57:35.799Z,342.07
2023-10-06T21:02:42.339Z,341.93
2023-10-06T21:07:45.250Z,347.30
2023-10-06T21:12:47.458Z,342.50
2023-10-06T21:17:49.637Z,346.03
2023-10-06T21:22:51.676Z,347.70
2023-10-06T21:27:54.811Z,339.73
2023-10-06T21:32:56.888Z,337.40
2023-10-06T21:37:59.887Z,327.10
2023-10-06T21:43:01.834Z,335.17
2023-10-06T21:48:04.379Z,335.77
2023-10-06T21:53:07.006Z,350.47
2023-10-06T21:58:09.356Z,336.87
2023-10-06T22:03:13.578Z,342.17
2023-10-06T22:08:15.689Z,351.53
2023-10-06T22:13:17.727Z,341.93
2023-10-06T22:18:19.700Z,339.63
2023-10-06T22:23:24.221Z,332.80
2023-10-06T22:28:27.677Z,344.60
2023-10-06T22:33:33.525Z,341.03
2023-10-06T22:38:35.475Z,336.77
2023-10-06T22:43:38.308Z,345.03
2023-10-06T22:48:42.180Z,350.50
2023-10-06T22:53:45.439Z,348.50
2023-10-06T22:58:47.407Z,343.00
2023-10-06T23:03:50.352Z,337.77
2023-10-06T23:08:52.511Z,342.60
2023-10-06T23:13:54.562Z,348.03
2023-10-06T23:18:56.725Z,335.97
2023-10-06T23:24:09.149Z,333.10
2023-10-06T23:29:13.311Z,344.03
2023-10-06T23:34:15.338Z,345.73
2023-10-06T23:39:20.007Z,335.53
2023-10-06T23:44:22.100Z,339.67
2023-10-06T23:49:26.672Z,343.47
2023-10-06T23:54:28.573Z,332.53
2023-10-06T23:59:32.724Z,351.60
